createdAt,value
2023-04-09T00:01:43.532Z,27.33
2023-04-09T00:04:46.648Z,25.13
2023-04-09T00:07:49.723Z,22.88
2023-04-09T00:10:53.359Z,25.15
2023-04-09T00:13:57.449Z,26.13
2023-04-09T00:17:00.663Z,25.17
2023-04-09T00:20:04.222Z,24.08
2023-04-09T00:23:07.228Z,23.08
2023-04-09T00:26:10.531Z,23.08
2023-04-09T00:29:14.063Z,25.03
2023-04-09T00:32:18.499Z,24.10
2023-04-09T00:35:21.614Z,22.20
2023-04-09T00:38:24.567Z,21.80
2023-04-09T00:41:27.480Z,22.77
2023-04-09T00:44:30.461Z,21.20
2023-04-09T00:47:33.420Z,23.13
2023-04-09T00:50:36.542Z,21.38
2023-04-09T00:53:39.512Z,21.45
2023-04-09T00:56:42.512Z,22.52
2023-04-09T00:59:45.833Z,22.53
2023-04-09T01:02:49.154Z,22.60
2023-04-09T01:06:11.236Z,21.77
2023-04-09T01:09:43.465Z,20.52
2023-04-09T01:13:25.648Z,19.52
2023-04-09T01:16:29.760Z,21.47
2023-04-09T01:19:44.596Z,20.43
2023-04-09T01:23:06.335Z,19.92
2023-04-09T01:26:15.557Z,24.70
2023-04-09T01:29:26.108Z,20.60
2023-04-09T01:32:32.430Z,22.53
2023-04-09T01:35:35.576Z,20.07
2023-04-09T01:38:41.493Z,22.33
2023-04-09T01:41:44.438Z,19.48
2023-04-09T01:44:47.378Z,19.73
2023-04-09T01:47:50.426Z,20.30
2023-04-09T01:50:53.422Z,21.27
2023-04-09T01:53:56.458Z,19.52
2023-04-09T01:56:59.489Z,19.58
2023-04-09T02:00:02.443Z,20.48
2023-04-09T02:03:29.889Z,19.57
2023-04-09T02:06:39.461Z,20.20
2023-04-09T02:09:42.426Z,20.83
2023-04-09T02:12:48.472Z,21.05
2023-04-09T02:15:51.526Z,19.83
2023-04-09T02:18:56.010Z,18.17
2023-04-09T02:21:58.984Z,21.33
2023-04-09T02:25:01.973Z,24.58
2023-04-09T02:28:05.052Z,24.23
2023-04-09T02:31:08.268Z,25.02
2023-04-09T02:34:11.266Z,20.23
2023-04-09T02:37:15.479Z,18.77
2023-04-09T02:40:18.510Z,19.50
2023-04-09T02:43:21.464Z,21.08
2023-04-09T02:46:24.482Z,20.10
2023-04-09T02:49:27.552Z,20.00
2023-04-09T02:52:30.568Z,20.87
2023-04-09T02:55:33.929Z,20.23
2023-04-09T02:58:36.931Z,18.77
2023-04-09T03:01:39.969Z,19.48
2023-04-09T03:04:43.029Z,20.80
2023-04-09T03:07:47.368Z,19.27
2023-04-09T03:10:50.519Z,17.75
2023-04-09T03:13:53.525Z,20.85
2023-04-09T03:16:56.479Z,21.67
2023-04-09T03:19:59.474Z,18.20
2023-04-09T03:23:10.373Z,18.43
2023-04-09T03:26:17.978Z,18.98
2023-04-09T03:29:24.243Z,20.23
2023-04-09T03:32:27.406Z,19.23
2023-04-09T03:35:31.458Z,19.67
2023-04-09T03:38:36.351Z,19.50
2023-04-09T03:41:45.863Z,20.38
2023-04-09T03:44:54.880Z,18.63
2023-04-09T03:48:11.431Z,20.33
2023-04-09T03:51:15.649Z,18.87
2023-04-09T03:54:24.868Z,17.10
2023-04-09T03:57:29.451Z,20.35
2023-04-09T04:00:33.171Z,19.25
2023-04-09T04:04:01.004Z,19.42
2023-04-09T04:07:27.233Z,19.73
2023-04-09T04:10:35.883Z,20.23
2023-04-09T04:13:39.064Z,19.77
2023-04-09T04:16:45.136Z,21.08
2023-04-09T04:19:52.454Z,20.20
2023-04-09T04:22:56.108Z,18.33
2023-04-09T04:26:00.667Z,19.00
2023-04-09T04:29:11.357Z,17.45
2023-04-09T04:32:30.503Z,18.52
2023-04-09T04:35:34.496Z,19.77
2023-04-09T04:38:41.473Z,18.63
2023-04-09T04:41:50.664Z,19.83
2023-04-09T04:44:58.430Z,18.90
2023-04-09T04:48:24.752Z,21.27
2023-04-09T04:51:29.217Z,19.15
2023-04-09T04:54:40.901Z,21.97
2023-04-09T04:57:44.496Z,18.50
2023-04-09T05:00:48.548Z,20.63
2023-04-09T05:03:51.810Z,21.42
2023-04-09T05:07:12.377Z,19.00
2023-04-09T05:10:23.390Z,18.63
2023-04-09T05:13:26.554Z,19.97
2023-04-09T05:16:33.309Z,17.73
2023-04-09T05:19:41.098Z,16.80
2023-04-09T05:22:45.495Z,17.75
2023-04-09T05:25:50.265Z,19.83
2023-04-09T05:29:17.352Z,19.03
2023-04-09T05:32:20.447Z,19.80
2023-04-09T05:35:23.524Z,19.27
2023-04-09T05:38:26.692Z,18.85
2023-04-09T05:41:33.792Z,19.67
2023-04-09T05:44:52.411Z,21.57
2023-04-09T05:47:57.401Z,20.38
2023-04-09T05:51:00.986Z,19.08
2023-04-09T05:54:05.510Z,17.48
2023-04-09T05:57:12.604Z,19.43
2023-04-09T06:00:20.084Z,19.83
2023-04-09T06:03:25.090Z,22.95
2023-04-09T06:06:28.170Z,20.80
2023-04-09T06:09:31.158Z,18.48
2023-04-09T06:12:35.834Z,18.53
2023-04-09T06:15:39.921Z,19.67
2023-04-09T06:18:42.940Z,20.00
2023-04-09T06:21:46.166Z,17.90
2023-04-09T06:24:49.096Z,19.50
2023-04-09T06:27:52.236Z,21.03
2023-04-09T06:30:55.557Z,15.27
2023-04-09T06:33:58.592Z,15.85
2023-04-09T06:37:01.576Z,18.85
2023-04-09T06:40:04.806Z,16.65
2023-04-09T06:43:07.773Z,17.47
2023-04-09T06:46:21.332Z,16.00
2023-04-09T06:49:24.348Z,18.63
2023-04-09T06:52:27.539Z,17.27
2023-04-09T06:55:30.572Z,15.80
2023-04-09T06:58:33.737Z,17.80
2023-04-09T07:01:37.899Z,18.40
2023-04-09T07:04:41.566Z,16.17
2023-04-09T07:07:44.663Z,14.20
2023-04-09T07:10:47.802Z,16.25
2023-04-09T07:13:50.976Z,17.83
2023-04-09T07:16:54.212Z,16.60
2023-04-09T07:19:57.166Z,18.00
2023-04-09T07:23:00.353Z,16.00
2023-04-09T07:26:04.913Z,15.93
2023-04-09T07:29:07.846Z,17.50
2023-04-09T07:32:10.778Z,16.93
2023-04-09T07:35:13.726Z,17.15
2023-04-09T07:38:16.812Z,16.17
2023-04-09T07:41:19.838Z,18.60
2023-04-09T07:44:23.304Z,17.57
2023-04-09T07:47:26.360Z,15.53
2023-04-09T07:50:29.387Z,16.27
2023-04-09T07:53:32.346Z,13.60
2023-04-09T07:56:35.517Z,15.57
2023-04-09T07:59:38.555Z,13.87
2023-04-09T08:02:42.148Z,17.17
2023-04-09T08:05:45.653Z,17.80
2023-04-09T08:08:48.619Z,16.83
2023-04-09T08:11:51.610Z,20.35
2023-04-09T08:14:54.540Z,18.23
2023-04-09T08:17:57.729Z,17.00
2023-04-09T08:21:04.072Z,15.15
2023-04-09T08:24:07.595Z,13.45
2023-04-09T08:27:11.032Z,17.52
2023-04-09T08:30:15.483Z,14.73
2023-04-09T08:33:19.844Z,16.77
2023-04-09T08:36:22.886Z,14.88
2023-04-09T08:39:26.236Z,14.95
2023-04-09T08:42:29.203Z,16.13
2023-04-09T08:45:32.200Z,15.87
2023-04-09T08:48:35.290Z,15.53
2023-04-09T08:51:39.404Z,13.57
2023-04-09T08:54:42.412Z,14.80
2023-04-09T08:57:45.388Z,16.92
2023-04-09T09:00:48.357Z,16.57
2023-04-09T09:04:01.154Z,16.97
2023-04-09T09:07:07.216Z,16.63
2023-04-09T09:10:10.522Z,13.02
2023-04-09T09:13:21.346Z,16.85
2023-04-09T09:16:24.333Z,12.73
2023-04-09T09:19:27.296Z,14.67
2023-04-09T09:22:30.360Z,14.68
2023-04-09T09:25:39.159Z,13.93
2023-04-09T09:28:42.393Z,13.45
2023-04-09T09:31:52.640Z,14.00
2023-04-09T09:35:03.224Z,14.87
2023-04-09T09:38:06.318Z,16.30
2023-04-09T09:41:19.492Z,14.20
2023-04-09T09:44:32.849Z,14.07
2023-04-09T09:47:36.597Z,13.57
2023-04-09T09:50:41.976Z,13.97
2023-04-09T09:53:47.123Z,13.80
2023-04-09T09:56:51.696Z,15.95
2023-04-09T10:00:01.020Z,14.10
2023-04-09T10:03:16.024Z,16.00
2023-04-09T10:06:19.049Z,13.00
2023-04-09T10:09:22.059Z,13.18
2023-04-09T10:12:25.097Z,12.45
2023-04-09T10:15:31.160Z,13.02
2023-04-09T10:18:34.766Z,12.43
2023-04-09T10:21:49.403Z,15.87
2023-04-09T10:24:52.773Z,14.30
2023-04-09T10:28:02.376Z,15.13
2023-04-09T10:31:06.763Z,12.52
2023-04-09T10:34:10.917Z,14.00
2023-04-09T10:37:27.026Z,13.10
2023-04-09T10:40:29.964Z,12.85
2023-04-09T10:43:33.895Z,12.32
2023-04-09T10:46:37.092Z,11.90
2023-04-09T10:49:41.046Z,12.30
2023-04-09T10:52:44.483Z,14.60
2023-04-09T10:55:51.747Z,13.88
2023-04-09T10:58:54.693Z,13.10
2023-04-09T11:01:57.747Z,14.43
2023-04-09T11:05:03.815Z,14.17
2023-04-09T11:08:11.648Z,12.93
2023-04-09T11:11:14.612Z,14.50
2023-04-09T11:14:20.772Z,17.75
2023-04-09T11:17:23.755Z,12.95
2023-04-09T11:20:27.102Z,13.63
2023-04-09T11:23:30.968Z,12.20
2023-04-09T11:26:37.121Z,12.65
2023-04-09T11:29:40.103Z,14.43
2023-04-09T11:32:43.295Z,13.07
2023-04-09T11:35:46.506Z,12.53
2023-04-09T11:38:51.094Z,12.80
2023-04-09T11:41:54.256Z,13.85
2023-04-09T11:44:57.195Z,14.57
2023-04-09T11:48:00.606Z,13.05
2023-04-09T11:51:04.110Z,13.27
2023-04-09T11:54:07.160Z,14.23
2023-04-09T11:57:10.254Z,14.32
2023-04-09T12:00:17.076Z,13.65
2023-04-09T12:03:21.620Z,13.88
2023-04-09T12:06:25.151Z,13.20
2023-04-09T12:09:28.187Z,14.87
2023-04-09T12:12:31.308Z,15.50
2023-04-09T12:15:35.922Z,15.77
2023-04-09T12:18:39.150Z,15.18
2023-04-09T12:21:55.798Z,14.50
2023-04-09T12:24:58.708Z,14.43
2023-04-09T12:28:02.175Z,13.35
2023-04-09T12:31:05.175Z,13.85
2023-04-09T12:34:08.252Z,14.48
2023-04-09T12:37:11.167Z,13.27
2023-04-09T12:40:14.367Z,12.77
2023-04-09T12:43:17.312Z,12.70
2023-04-09T12:46:20.497Z,15.80
2023-04-09T12:49:23.516Z,14.45
2023-04-09T12:52:26.481Z,13.43
2023-04-09T12:55:29.573Z,13.30
2023-04-09T12:58:32.552Z,14.88
2023-04-09T13:01:35.645Z,12.63
2023-04-09T13:04:38.719Z,13.95
2023-04-09T13:07:43.513Z,13.27
2023-04-09T13:10:46.609Z,12.53
2023-04-09T13:13:49.546Z,12.82
2023-04-09T13:16:52.759Z,13.10
2023-04-09T13:19:56.146Z,14.00
2023-04-09T13:22:59.126Z,12.27
2023-04-09T13:26:02.124Z,12.03
2023-04-09T13:29:05.083Z,11.48
2023-04-09T13:32:08.155Z,11.73
2023-04-09T13:35:11.490Z,14.38
2023-04-09T13:38:14.426Z,12.53
2023-04-09T13:41:17.371Z,11.60
2023-04-09T13:44:20.341Z,12.45
2023-04-09T13:47:24.068Z,12.88
2023-04-09T13:50:27.183Z,13.10
2023-04-09T13:53:30.110Z,13.73
2023-04-09T13:56:33.054Z,13.83
2023-04-09T13:59:36.211Z,12.73
2023-04-09T14:02:39.283Z,13.57
2023-04-09T14:05:42.269Z,12.73
2023-04-09T14:08:45.415Z,12.60
2023-04-09T14:11:49.433Z,12.97
2023-04-09T14:14:52.775Z,12.15
2023-04-09T14:17:56.090Z,12.32
2023-04-09T14:20:59.397Z,12.88
2023-04-09T14:24:02.348Z,13.03
2023-04-09T14:27:06.101Z,12.73
2023-04-09T14:30:10.853Z,13.43
2023-04-09T14:33:13.806Z,15.60
2023-04-09T14:36:17.256Z,17.38
2023-04-09T14:39:20.257Z,14.90
2023-04-09T14:42:23.328Z,15.47
2023-04-09T14:45:26.625Z,15.13
2023-04-09T14:48:30.454Z,15.43
2023-04-09T14:51:33.452Z,15.15
2023-04-09T14:54:37.874Z,14.30
2023-04-09T14:57:41.916Z,15.23
2023-04-09T15:00:45.147Z,14.23
2023-04-09T15:03:48.226Z,15.50
2023-04-09T15:06:51.527Z,15.05
2023-04-09T15:09:54.563Z,13.97
2023-04-09T15:12:57.541Z,14.50
2023-04-09T15:16:00.612Z,16.30
2023-04-09T15:19:03.800Z,13.82
2023-04-09T15:22:06.735Z,13.90
2023-04-09T15:25:10.366Z,15.90
2023-04-09T15:28:14.546Z,12.83
2023-04-09T15:31:17.567Z,13.00
2023-04-09T15:34:20.582Z,15.40
2023-04-09T15:37:23.866Z,13.70
2023-04-09T15:40:28.754Z,15.33
2023-04-09T15:43:31.838Z,16.63
2023-04-09T15:46:34.783Z,16.75
2023-04-09T15:49:37.786Z,18.50
2023-04-09T15:52:40.802Z,18.80
2023-04-09T15:55:43.849Z,15.67
2023-04-09T15:58:46.856Z,14.77
2023-04-09T16:01:49.938Z,16.92
2023-04-09T16:04:52.921Z,17.35
2023-04-09T16:07:58.279Z,21.70
2023-04-09T16:11:03.107Z,25.50
2023-04-09T16:14:06.150Z,24.27
2023-04-09T16:17:10.352Z,26.67
2023-04-09T16:20:13.462Z,26.83
2023-04-09T16:23:16.484Z,26.33
2023-04-09T16:26:19.494Z,26.57
2023-04-09T16:29:22.428Z,19.60
2023-04-09T16:32:25.500Z,21.77
2023-04-09T16:35:28.615Z,17.88
2023-04-09T16:38:31.525Z,17.23
2023-04-09T16:41:36.510Z,18.17
2023-04-09T16:44:39.990Z,18.30
2023-04-09T16:47:42.917Z,19.48
2023-04-09T16:50:45.946Z,19.17
2023-04-09T16:53:48.933Z,22.25
2023-04-09T16:56:51.870Z,23.30
2023-04-09T16:59:55.058Z,23.07
2023-04-09T17:02:58.137Z,21.35
2023-04-09T17:06:01.808Z,21.35
2023-04-09T17:09:06.491Z,20.80
2023-04-09T17:12:09.904Z,23.37
2023-04-09T17:15:12.932Z,23.27
2023-04-09T17:18:16.112Z,21.63
2023-04-09T17:21:19.029Z,22.20
2023-04-09T17:24:21.995Z,19.40
2023-04-09T17:27:24.938Z,23.70
2023-04-09T17:30:28.244Z,22.43
2023-04-09T17:33:31.213Z,22.55
2023-04-09T17:36:34.417Z,25.40
2023-04-09T17:39:37.372Z,29.67
2023-04-09T17:42:40.924Z,33.37
2023-04-09T17:45:43.926Z,31.90
2023-04-09T17:48:46.886Z,32.70
2023-04-09T17:51:49.940Z,32.55
2023-04-09T17:54:53.142Z,31.25
2023-04-09T17:57:56.104Z,30.93
2023-04-09T18:00:59.694Z,34.73
2023-04-09T18:04:02.936Z,32.38
2023-04-09T18:07:06.124Z,34.28
2023-04-09T18:10:09.395Z,34.53
2023-04-09T18:13:12.353Z,36.63
2023-04-09T18:16:15.430Z,36.63
2023-04-09T18:19:18.549Z,34.85
2023-04-09T18:22:21.917Z,35.08
2023-04-09T18:25:25.009Z,37.78
2023-04-09T18:28:28.225Z,35.70
2023-04-09T18:31:31.268Z,43.07
2023-04-09T18:34:34.272Z,40.53
2023-04-09T18:37:38.090Z,37.72
2023-04-09T18:40:42.625Z,40.85
2023-04-09T18:43:45.844Z,41.13
2023-04-09T18:46:48.860Z,34.80
2023-04-09T18:49:51.866Z,33.50
2023-04-09T18:52:54.791Z,33.25
2023-04-09T18:55:57.827Z,37.17
2023-04-09T18:59:01.083Z,34.33
2023-04-09T19:02:05.311Z,33.63
2023-04-09T19:05:08.989Z,32.33
2023-04-09T19:08:11.968Z,31.90
2023-04-09T19:11:15.373Z,35.03
2023-04-09T19:14:18.355Z,33.43
2023-04-09T19:17:21.369Z,31.33
2023-04-09T19:20:24.332Z,31.73
2023-04-09T19:23:27.610Z,28.98
2023-04-09T19:26:30.964Z,31.60
2023-04-09T19:29:33.944Z,30.93
2023-04-09T19:32:37.098Z,27.33
2023-04-09T19:35:41.140Z,29.02
2023-04-09T19:38:44.203Z,30.90
2023-04-09T19:41:47.180Z,28.52
2023-04-09T19:44:50.249Z,27.10
2023-04-09T19:47:55.515Z,30.63
2023-04-09T19:50:58.917Z,29.67
2023-04-09T19:54:01.983Z,31.75
2023-04-09T19:57:05.036Z,28.35
2023-04-09T20:00:08.860Z,30.70
2023-04-09T20:03:14.320Z,30.73
2023-04-09T20:06:18.282Z,34.65
2023-04-09T20:09:23.925Z,36.83
2023-04-09T20:12:29.496Z,30.83
2023-04-09T20:15:32.942Z,39.33
2023-04-09T20:18:35.928Z,30.10
2023-04-09T20:21:38.948Z,31.38
2023-04-09T20:24:42.897Z,31.73
2023-04-09T20:27:45.916Z,31.02
2023-04-09T20:30:49.335Z,31.33
2023-04-09T20:33:52.320Z,32.40
2023-04-09T20:36:55.694Z,32.22
2023-04-09T20:39:59.942Z,47.05
2023-04-09T20:43:03.097Z,36.40
2023-04-09T20:46:06.329Z,38.20
2023-04-09T20:49:09.398Z,37.17
2023-04-09T20:52:12.350Z,34.00
2023-04-09T20:55:15.363Z,32.80
2023-04-09T20:58:18.586Z,34.25
2023-04-09T21:01:22.498Z,38.47
2023-04-09T21:04:26.178Z,35.07
2023-04-09T21:07:29.247Z,37.55
2023-04-09T21:10:32.190Z,37.72
2023-04-09T21:13:50.394Z,36.28
2023-04-09T21:16:57.412Z,34.00
2023-04-09T21:20:01.076Z,35.13
2023-04-09T21:23:04.034Z,36.80
2023-04-09T21:26:07.261Z,39.03
2023-04-09T21:29:10.551Z,40.20
2023-04-09T21:32:13.468Z,40.03
2023-04-09T21:35:16.515Z,34.63
2023-04-09T21:38:19.566Z,37.80
2023-04-09T21:41:23.595Z,38.00
2023-04-09T21:44:26.572Z,35.47
2023-04-09T21:47:29.602Z,39.80
2023-04-09T21:50:33.222Z,37.03
2023-04-09T21:53:36.241Z,36.72
2023-04-09T21:56:39.345Z,38.17
2023-04-09T21:59:42.333Z,36.58
2023-04-09T22:02:51.956Z,39.10
2023-04-09T22:05:54.967Z,33.57
2023-04-09T22:08:58.329Z,31.70
2023-04-09T22:12:02.826Z,33.25
2023-04-09T22:15:06.437Z,35.15
2023-04-09T22:18:09.368Z,31.77
2023-04-09T22:21:18.537Z,32.43
2023-04-09T22:24:26.909Z,28.95
2023-04-09T22:27:30.139Z,30.20
2023-04-09T22:30:33.068Z,34.40
2023-04-09T22:33:36.096Z,29.53
2023-04-09T22:36:39.061Z,28.90
2023-04-09T22:39:42.033Z,30.40
2023-04-09T22:42:48.313Z,29.83
2023-04-09T22:45:54.929Z,28.50
2023-04-09T22:49:04.533Z,28.03
2023-04-09T22:52:08.435Z,26.97
2023-04-09T22:55:13.624Z,31.75
2023-04-09T22:58:16.982Z,29.60
2023-04-09T23:01:22.269Z,28.75
2023-04-09T23:04:25.620Z,29.30
2023-04-09T23:07:28.978Z,30.83
2023-04-09T23:10:33.082Z,30.90
2023-04-09T23:13:36.072Z,30.73
2023-04-09T23:16:39.082Z,32.67
2023-04-09T23:19:42.418Z,32.03
2023-04-09T23:22:47.205Z,29.77
2023-04-09T23:25:50.131Z,29.35
2023-04-09T23:28:53.403Z,29.95
2023-04-09T23:31:56.612Z,27.05
2023-04-09T23:35:01.280Z,27.93
2023-04-09T23:38:04.278Z,28.83
2023-04-09T23:41:07.336Z,28.35
2023-04-09T23:44:10.293Z,28.90
2023-04-09T23:47:13.756Z,29.63
2023-04-09T23:50:17.753Z,37.43
2023-04-09T23:53:21.292Z,30.60
2023-04-09T23:56:25.150Z,31.67
2023-04-09T23:59:31.118Z,27.38
